createdAt,value
2022-09-14T00:00:06.318Z,0.00
2022-09-14T00:01:25.319Z,0.00
2022-09-14T00:02:08.596Z,0.00
2022-09-14T00:03:06.237Z,0.00
2022-09-14T00:04:06.076Z,0.00
2022-09-14T00:05:07.128Z,0.00
2022-09-14T00:06:06.824Z,0.00
2022-09-14T00:07:12.643Z,0.00
2022-09-14T00:08:08.373Z,0.00
2022-09-14T00:09:06.487Z,0.00
2022-09-14T00:10:07.701Z,0.00
2022-09-14T00:11:06.177Z,0.00
2022-09-14T00:12:16.445Z,0.00
2022-09-14T00:13:06.568Z,0.00
2022-09-14T00:14:06.012Z,0.00
2022-09-14T00:15:06.058Z,0.00
2022-09-14T00:16:05.995Z,0.00
2022-09-14T00:17:06.551Z,0.00
2022-09-14T00:18:19.406Z,0.00
2022-09-14T00:19:05.933Z,0.00
2022-09-14T00:20:05.861Z,0.00
2022-09-14T00:21:05.926Z,0.00
2022-09-14T00:22:05.976Z,0.00
2022-09-14T00:23:06.896Z,0.00
2022-09-14T00:24:14.372Z,0.00
2022-09-14T00:25:06.684Z,0.00
2022-09-14T00:26:06.765Z,0.00
2022-09-14T00:27:07.130Z,0.00
2022-09-14T00:28:06.800Z,0.00
2022-09-14T00:29:15.522Z,0.00
2022-09-14T00:30:06.818Z,0.00
2022-09-14T00:31:05.858Z,0.00
2022-09-14T00:32:06.027Z,0.00
2022-09-14T00:33:05.837Z,0.00
2022-09-14T00:34:05.636Z,0.00
2022-09-14T00:35:12.344Z,0.00
2022-09-14T00:36:05.961Z,0.00
2022-09-14T00:37:05.746Z,0.00
2022-09-14T00:38:06.515Z,0.00
2022-09-14T00:39:06.511Z,0.00
2022-09-14T00:40:07.011Z,0.00
2022-09-14T00:41:12.065Z,0.00
2022-09-14T00:42:06.848Z,0.00
2022-09-14T00:43:05.613Z,0.00
2022-09-14T00:44:07.738Z,0.00
2022-09-14T00:45:12.204Z,0.00
2022-09-14T00:46:14.026Z,0.00
2022-09-14T00:47:05.556Z,0.00
2022-09-14T00:48:06.476Z,0.00
2022-09-14T00:49:06.546Z,0.00
2022-09-14T00:50:06.811Z,0.00
2022-09-14T00:51:05.839Z,0.00
2022-09-14T00:52:12.017Z,0.00
2022-09-14T00:53:06.955Z,0.00
2022-09-14T00:54:05.489Z,0.00
2022-09-14T00:55:05.398Z,0.00
2022-09-14T00:56:07.394Z,0.00
2022-09-14T00:57:06.715Z,0.00
2022-09-14T00:58:13.973Z,0.00
2022-09-14T00:59:17.664Z,0.00
2022-09-14T01:00:05.530Z,0.00
2022-09-14T01:01:08.608Z,0.00
2022-09-14T01:02:05.570Z,0.00
2022-09-14T01:03:06.629Z,0.00
2022-09-14T01:04:12.975Z,0.00
2022-09-14T01:05:05.860Z,0.00
2022-09-14T01:06:05.341Z,0.00
2022-09-14T01:07:05.357Z,0.00
2022-09-14T01:08:06.549Z,0.00
2022-09-14T01:09:11.820Z,0.00
2022-09-14T01:10:05.356Z,0.00
2022-09-14T01:11:09.302Z,0.00
2022-09-14T01:12:05.256Z,0.00
2022-09-14T01:13:06.655Z,0.00
2022-09-14T01:14:12.449Z,0.00
2022-09-14T01:15:05.675Z,0.00
2022-09-14T01:16:06.683Z,0.00
2022-09-14T01:17:05.961Z,0.00
2022-09-14T01:18:05.173Z,0.00
2022-09-14T01:19:05.631Z,0.00
2022-09-14T01:20:11.422Z,0.00
2022-09-14T01:21:05.111Z,0.00
2022-09-14T01:22:05.033Z,0.00
2022-09-14T01:23:05.085Z,0.00
2022-09-14T01:24:05.467Z,0.00
2022-09-14T01:25:05.243Z,0.00
2022-09-14T01:26:11.603Z,0.00
2022-09-14T01:27:07.621Z,0.00
2022-09-14T01:28:05.053Z,0.00
2022-09-14T01:29:05.095Z,0.00
2022-09-14T01:30:05.816Z,0.00
2022-09-14T01:31:13.986Z,0.00
2022-09-14T01:32:05.285Z,0.00
2022-09-14T01:33:08.289Z,0.00
2022-09-14T01:34:05.116Z,0.00
2022-09-14T01:35:05.528Z,0.00
2022-09-14T01:36:05.051Z,0.00
2022-09-14T01:37:13.300Z,0.00
2022-09-14T01:38:05.394Z,0.00
2022-09-14T01:39:05.355Z,0.00
2022-09-14T01:40:07.639Z,0.00
2022-09-14T01:41:05.908Z,0.00
2022-09-14T01:42:13.653Z,0.00
2022-09-14T01:43:04.874Z,0.00
2022-09-14T01:44:04.837Z,0.00
2022-09-14T01:45:05.935Z,0.00
2022-09-14T01:46:05.038Z,0.00
2022-09-14T01:47:04.926Z,0.00
2022-09-14T01:48:12.052Z,0.00
2022-09-14T01:49:06.131Z,0.00
2022-09-14T01:50:05.059Z,0.00
2022-09-14T01:51:05.360Z,0.00
2022-09-14T01:52:05.738Z,0.00
2022-09-14T01:53:12.731Z,0.00
2022-09-14T01:54:05.639Z,0.00
2022-09-14T01:55:05.032Z,0.00
2022-09-14T01:56:04.751Z,0.00
2022-09-14T01:57:07.371Z,0.00
2022-09-14T01:58:11.291Z,0.00
2022-09-14T01:59:05.049Z,0.00
2022-09-14T02:00:05.701Z,0.00
2022-09-14T02:01:05.162Z,0.00
2022-09-14T02:02:04.617Z,0.00
2022-09-14T02:03:05.342Z,0.00
2022-09-14T02:04:11.791Z,0.00
2022-09-14T02:05:04.460Z,0.00
2022-09-14T02:06:05.750Z,0.00
2022-09-14T02:07:04.755Z,0.00
2022-09-14T02:08:05.097Z,0.00
2022-09-14T02:09:10.762Z,0.00
2022-09-14T02:10:05.300Z,0.00
2022-09-14T02:11:05.603Z,0.00
2022-09-14T02:12:04.498Z,0.00
2022-09-14T02:13:19.191Z,0.00
2022-09-14T02:14:04.790Z,0.00
2022-09-14T02:15:11.548Z,0.00
2022-09-14T02:16:05.213Z,0.00
2022-09-14T02:17:11.601Z,0.00
2022-09-14T02:18:04.433Z,0.00
2022-09-14T02:19:04.466Z,0.00
2022-09-14T02:20:12.855Z,0.00
2022-09-14T02:21:04.456Z,0.00
2022-09-14T02:22:04.427Z,0.00
2022-09-14T02:23:04.566Z,0.00
2022-09-14T02:24:04.350Z,0.00
2022-09-14T02:25:10.664Z,0.00
2022-09-14T02:26:04.386Z,0.00
2022-09-14T02:27:04.271Z,0.00
2022-09-14T02:28:05.668Z,0.00
2022-09-14T02:29:04.237Z,0.00
2022-09-14T02:30:04.221Z,0.00
2022-09-14T02:31:10.934Z,0.00
2022-09-14T02:32:04.250Z,0.00
2022-09-14T02:33:04.393Z,0.00
2022-09-14T02:34:04.115Z,0.00
2022-09-14T02:35:04.102Z,0.00
2022-09-14T02:36:04.171Z,0.00
2022-09-14T02:37:10.550Z,0.00
2022-09-14T02:38:04.063Z,0.00
2022-09-14T02:39:04.420Z,0.00
2022-09-14T02:40:04.112Z,0.00
2022-09-14T02:41:04.155Z,0.00
2022-09-14T02:42:10.609Z,0.00
2022-09-14T02:43:04.193Z,0.00
2022-09-14T02:44:06.169Z,0.00
2022-09-14T02:45:04.025Z,0.00
2022-09-14T02:46:05.251Z,0.00
2022-09-14T02:47:04.240Z,0.00
2022-09-14T02:48:10.253Z,0.00
2022-09-14T02:49:04.017Z,0.00
2022-09-14T02:50:03.912Z,0.00
2022-09-14T02:51:04.010Z,0.00
2022-09-14T02:52:03.987Z,0.00
2022-09-14T02:53:04.382Z,0.00
2022-09-14T02:54:48.086Z,0.00
2022-09-14T02:55:48.016Z,0.00
2022-09-14T02:56:48.124Z,0.00
2022-09-14T02:57:49.284Z,0.00
2022-09-14T02:58:54.512Z,0.00
2022-09-14T02:59:48.070Z,0.00
2022-09-14T03:00:48.075Z,0.00
2022-09-14T03:01:48.175Z,0.00
2022-09-14T03:02:48.021Z,0.00
2022-09-14T03:03:54.896Z,0.00
2022-09-14T03:04:48.543Z,0.00
2022-09-14T03:05:48.071Z,0.00
2022-09-14T03:06:48.429Z,0.00
2022-09-14T03:07:47.923Z,0.00
2022-09-14T03:08:48.270Z,0.00
2022-09-14T03:09:54.604Z,0.00
2022-09-14T03:10:48.170Z,0.00
2022-09-14T03:11:47.906Z,0.00
2022-09-14T03:12:47.819Z,0.00
2022-09-14T03:13:48.282Z,0.00
2022-09-14T03:14:47.805Z,0.00
2022-09-14T03:15:54.196Z,0.00
2022-09-14T03:16:47.788Z,0.00
2022-09-14T03:17:47.787Z,0.00
2022-09-14T03:18:48.593Z,0.00
2022-09-14T03:19:47.719Z,0.00
2022-09-14T03:20:54.728Z,0.00
2022-09-14T03:21:47.718Z,0.00
2022-09-14T03:22:47.795Z,0.00
2022-09-14T03:23:47.766Z,0.00
2022-09-14T03:24:47.712Z,0.00
2022-09-14T03:25:54.857Z,0.00
2022-09-14T03:26:47.687Z,0.00
2022-09-14T03:27:47.730Z,0.00
2022-09-14T03:28:47.609Z,0.00
2022-09-14T03:29:47.670Z,0.00
2022-09-14T03:30:47.645Z,0.00
2022-09-14T03:31:54.913Z,0.00
2022-09-14T03:32:48.009Z,0.00
2022-09-14T03:33:47.587Z,0.00
2022-09-14T03:34:48.341Z,0.00
2022-09-14T03:35:47.604Z,0.00
2022-09-14T03:36:47.507Z,0.00
2022-09-14T03:37:54.087Z,0.00
2022-09-14T03:38:47.777Z,0.00
2022-09-14T03:39:47.703Z,0.00
2022-09-14T03:40:47.669Z,0.00
2022-09-14T03:41:47.972Z,0.00
2022-09-14T03:42:47.613Z,0.00
2022-09-14T03:43:54.504Z,0.00
2022-09-14T03:44:47.503Z,0.00
2022-09-14T03:45:48.503Z,0.00
2022-09-14T03:46:47.741Z,0.00
2022-09-14T03:47:47.532Z,0.00
2022-09-14T03:48:53.738Z,0.00
2022-09-14T03:49:47.343Z,0.00
2022-09-14T03:50:47.407Z,0.00
2022-09-14T03:51:47.527Z,0.00
2022-09-14T03:52:48.064Z,0.00
2022-09-14T03:53:47.242Z,0.00
2022-09-14T03:54:53.931Z,0.00
2022-09-14T03:55:47.857Z,0.00
2022-09-14T03:56:47.310Z,0.00
2022-09-14T03:57:48.472Z,0.00
2022-09-14T03:58:47.336Z,0.00
2022-09-14T03:59:53.103Z,0.00
2022-09-14T04:00:53.741Z,0.00
2022-09-14T04:01:47.263Z,0.00
2022-09-14T04:02:48.101Z,0.00
2022-09-14T04:03:47.366Z,0.00
2022-09-14T04:04:47.143Z,0.00
2022-09-14T04:05:47.181Z,0.00
2022-09-14T04:06:54.535Z,0.00
2022-09-14T04:07:47.237Z,0.00
2022-09-14T04:08:47.272Z,0.00
2022-09-14T04:09:47.192Z,0.00
2022-09-14T04:10:48.444Z,0.00
2022-09-14T04:11:53.467Z,4.00
2022-09-14T04:12:47.313Z,4.00
2022-09-14T04:13:47.055Z,0.00
2022-09-14T04:14:47.186Z,0.00
2022-09-14T04:15:47.129Z,4.00
2022-09-14T04:16:47.046Z,4.00
2022-09-14T04:17:53.292Z,4.00
2022-09-14T04:18:47.135Z,8.00
2022-09-14T04:19:46.987Z,4.00
2022-09-14T04:20:47.092Z,4.00
2022-09-14T04:21:47.056Z,12.00
2022-09-14T04:22:54.665Z,8.00
2022-09-14T04:24:12.833Z,12.00
2022-09-14T04:24:48.551Z,12.00
2022-09-14T04:25:47.085Z,12.00
2022-09-14T04:26:47.142Z,20.00
2022-09-14T04:27:59.035Z,20.00
2022-09-14T04:28:55.345Z,24.00
2022-09-14T04:29:47.009Z,28.00
2022-09-14T04:30:46.819Z,32.00
2022-09-14T04:31:46.818Z,36.00
2022-09-14T04:32:46.992Z,36.00
2022-09-14T04:33:46.963Z,44.00
2022-09-14T04:34:53.049Z,48.00
2022-09-14T04:35:46.717Z,56.00
2022-09-14T04:36:46.733Z,60.00
2022-09-14T04:37:46.705Z,64.00
2022-09-14T04:38:46.675Z,68.00
2022-09-14T04:39:54.210Z,80.00
2022-09-14T04:40:48.075Z,88.00
2022-09-14T04:41:48.062Z,92.00
2022-09-14T04:42:48.335Z,104.00
2022-09-14T04:43:48.443Z,108.00
2022-09-14T04:44:53.375Z,116.00
2022-09-14T04:45:46.983Z,124.00
2022-09-14T04:46:47.258Z,136.00
2022-09-14T04:47:47.083Z,148.00
2022-09-14T04:48:47.199Z,164.00
2022-09-14T04:49:47.114Z,176.00
2022-09-14T04:50:54.147Z,188.00
2022-09-14T04:51:47.837Z,196.00
2022-09-14T04:52:47.871Z,208.00
2022-09-14T04:53:46.572Z,224.00
2022-09-14T04:54:46.548Z,252.00
2022-09-14T04:55:53.057Z,272.00
2022-09-14T04:56:46.571Z,292.00
2022-09-14T04:57:47.018Z,308.00
2022-09-14T04:58:51.242Z,328.00
2022-09-14T04:59:48.271Z,336.00
2022-09-14T05:00:53.407Z,360.00
2022-09-14T05:01:46.536Z,380.00
2022-09-14T05:02:46.843Z,388.00
2022-09-14T05:03:48.418Z,392.00
2022-09-14T05:04:46.958Z,400.00
2022-09-14T05:05:46.511Z,416.00
2022-09-14T05:06:52.827Z,428.00
2022-09-14T05:07:47.497Z,452.00
2022-09-14T05:08:46.722Z,484.00
2022-09-14T05:09:46.871Z,476.00
2022-09-14T05:10:46.453Z,484.00
2022-09-14T05:11:46.724Z,496.00
2022-09-14T05:12:52.953Z,484.00
2022-09-14T05:13:49.937Z,484.00
2022-09-14T05:14:46.384Z,496.00
2022-09-14T05:15:46.501Z,516.00
2022-09-14T05:16:52.985Z,536.00
2022-09-14T05:17:52.783Z,560.00
2022-09-14T05:18:46.290Z,596.00
2022-09-14T05:19:47.426Z,636.00
2022-09-14T05:20:46.311Z,696.00
2022-09-14T05:21:46.755Z,788.00
2022-09-14T05:22:46.391Z,820.00
2022-09-14T05:23:52.761Z,848.00
2022-09-14T05:24:47.525Z,884.00
2022-09-14T05:25:46.236Z,908.00
2022-09-14T05:26:48.458Z,920.00
2022-09-14T05:27:46.229Z,992.00
2022-09-14T05:28:46.257Z,1068.00
2022-09-14T05:29:54.159Z,992.00
2022-09-14T05:30:46.257Z,1064.00
2022-09-14T05:31:47.349Z,1076.00
2022-09-14T05:32:46.402Z,1040.00
2022-09-14T05:33:47.510Z,984.00
2022-09-14T05:34:53.434Z,980.00
2022-09-14T05:35:46.293Z,1044.00
2022-09-14T05:36:49.533Z,1020.00
2022-09-14T05:37:47.326Z,1000.00
2022-09-14T05:38:47.401Z,1092.00
2022-09-14T05:39:45.987Z,1156.00
2022-09-14T05:40:52.403Z,1192.00
2022-09-14T05:41:53.292Z,1244.00
2022-09-14T05:42:45.971Z,1176.00
2022-09-14T05:43:45.978Z,1044.00
2022-09-14T05:44:46.160Z,1076.00
2022-09-14T05:45:53.811Z,1168.00
2022-09-14T05:46:54.213Z,1228.00
2022-09-14T05:47:46.103Z,1336.00
2022-09-14T05:48:45.923Z,1288.00
2022-09-14T05:49:45.928Z,1280.00
2022-09-14T05:50:52.314Z,1268.00
2022-09-14T05:51:46.027Z,1176.00
2022-09-14T05:52:45.813Z,1240.00
2022-09-14T05:53:45.686Z,1304.00
2022-09-14T05:54:45.734Z,1268.00
2022-09-14T05:55:53.084Z,1376.00
2022-09-14T05:56:45.704Z,1456.00
2022-09-14T05:57:45.803Z,1400.00
2022-09-14T05:58:45.686Z,1380.00
2022-09-14T05:59:46.285Z,1396.00
2022-09-14T06:00:53.138Z,1528.00
2022-09-14T06:01:45.776Z,1520.00
2022-09-14T06:02:45.642Z,1320.00
2022-09-14T06:03:45.829Z,1300.00
2022-09-14T06:04:45.678Z,1236.00
2022-09-14T06:05:52.848Z,1184.00
2022-09-14T06:06:56.175Z,1192.00
2022-09-14T06:07:47.116Z,1180.00
2022-09-14T06:08:45.557Z,1220.00
2022-09-14T06:09:46.381Z,1296.00
2022-09-14T06:10:52.277Z,1348.00
2022-09-14T06:11:46.212Z,1408.00
2022-09-14T06:12:45.512Z,1440.00
2022-09-14T06:13:45.509Z,1532.00
2022-09-14T06:14:45.536Z,1524.00
2022-09-14T06:15:55.727Z,1524.00
2022-09-14T06:16:45.594Z,1564.00
2022-09-14T06:17:45.968Z,1548.00
2022-09-14T06:18:45.563Z,1516.00
2022-09-14T06:19:45.422Z,1508.00
2022-09-14T06:20:51.627Z,1504.00
2022-09-14T06:21:45.545Z,1484.00
2022-09-14T06:22:45.476Z,1508.00
2022-09-14T06:23:45.376Z,1500.00
2022-09-14T06:24:45.966Z,1508.00
2022-09-14T06:25:45.419Z,1596.00
2022-09-14T06:26:51.665Z,1672.00
2022-09-14T06:27:45.858Z,1692.00
2022-09-14T06:28:45.532Z,1696.00
2022-09-14T06:29:45.514Z,1672.00
2022-09-14T06:30:58.915Z,1636.00
2022-09-14T06:31:45.236Z,1588.00
2022-09-14T06:32:51.757Z,1588.00
2022-09-14T06:33:45.697Z,1540.00
2022-09-14T06:34:45.194Z,1512.00
2022-09-14T06:35:45.125Z,1508.00
2022-09-14T06:36:45.599Z,1536.00
2022-09-14T06:37:45.287Z,1576.00
2022-09-14T06:38:51.646Z,1624.00
2022-09-14T06:39:45.273Z,1744.00
2022-09-14T06:40:45.304Z,1880.00
2022-09-14T06:41:45.095Z,1880.00
2022-09-14T06:42:45.247Z,1884.00
2022-09-14T06:43:52.789Z,1940.00
2022-09-14T06:44:47.837Z,1888.00
2022-09-14T06:45:46.486Z,1860.00
2022-09-14T06:46:47.621Z,1872.00
2022-09-14T06:47:45.240Z,1888.00
2022-09-14T06:48:52.231Z,2004.00
2022-09-14T06:49:45.412Z,2084.00
2022-09-14T06:50:48.803Z,2032.00
2022-09-14T06:51:46.040Z,1928.00
2022-09-14T06:52:50.265Z,1984.00
2022-09-14T06:53:51.473Z,1956.00
2022-09-14T06:54:44.899Z,2008.00
2022-09-14T06:55:45.254Z,2228.00
2022-09-14T06:56:44.884Z,2584.00
2022-09-14T06:57:45.054Z,2848.00
2022-09-14T06:58:51.248Z,3300.00
2022-09-14T06:59:44.867Z,3296.00
2022-09-14T07:00:44.874Z,3520.00
2022-09-14T07:01:44.869Z,3468.00
2022-09-14T07:02:53.573Z,3120.00
2022-09-14T07:03:53.603Z,2816.00
2022-09-14T07:04:44.911Z,2832.00
2022-09-14T07:05:44.752Z,3064.00
2022-09-14T07:06:44.845Z,2888.00
2022-09-14T07:07:44.860Z,2964.00
2022-09-14T07:08:44.856Z,2956.00
2022-09-14T07:09:51.217Z,2748.00
2022-09-14T07:10:44.684Z,2392.00
2022-09-14T07:11:44.824Z,2096.00
2022-09-14T07:12:44.759Z,1820.00
2022-09-14T07:13:44.977Z,1736.00
2022-09-14T07:14:53.059Z,1528.00
2022-09-14T07:15:44.761Z,1412.00
2022-09-14T07:16:44.653Z,1376.00
2022-09-14T07:17:44.738Z,1424.00
2022-09-14T07:18:44.742Z,1472.00
2022-09-14T07:19:44.657Z,1552.00
2022-09-14T07:20:52.158Z,1680.00
2022-09-14T07:21:45.776Z,1800.00
2022-09-14T07:22:44.534Z,1956.00
2022-09-14T07:23:45.119Z,2108.00
2022-09-14T07:24:44.952Z,2288.00
2022-09-14T07:25:45.142Z,2520.00
2022-09-14T07:26:51.178Z,2748.00
2022-09-14T07:27:45.299Z,2900.00
2022-09-14T07:28:44.809Z,2964.00
2022-09-14T07:29:44.503Z,2904.00
2022-09-14T07:30:44.519Z,2788.00
2022-09-14T07:31:53.457Z,2752.00
2022-09-14T07:32:44.691Z,2744.00
2022-09-14T07:33:44.659Z,2764.00
2022-09-14T07:34:44.447Z,2764.00
2022-09-14T07:35:44.359Z,2632.00
2022-09-14T07:36:44.851Z,2648.00
2022-09-14T07:37:50.821Z,2564.00
2022-09-14T07:38:52.906Z,2520.00
2022-09-14T07:39:46.040Z,2524.00
2022-09-14T07:40:45.097Z,2708.00
2022-09-14T07:41:44.677Z,2956.00
2022-09-14T07:42:44.298Z,3304.00
2022-09-14T07:43:51.021Z,3672.00
2022-09-14T07:44:56.029Z,3824.00
2022-09-14T07:45:45.066Z,4080.00
2022-09-14T07:46:44.408Z,4260.00
2022-09-14T07:47:44.323Z,4224.00
2022-09-14T07:48:52.663Z,4208.00
2022-09-14T07:49:48.271Z,4264.00
2022-09-14T07:50:44.205Z,4336.00
2022-09-14T07:51:44.291Z,4452.00
2022-09-14T07:52:44.217Z,4472.00
2022-09-14T07:53:44.254Z,4492.00
2022-09-14T07:54:50.481Z,4384.00
2022-09-14T07:55:44.134Z,4196.00
2022-09-14T07:56:44.169Z,4036.00
2022-09-14T07:57:55.720Z,4044.00
2022-09-14T07:58:45.693Z,4008.00
2022-09-14T07:59:44.071Z,4052.00
2022-09-14T08:00:50.481Z,4144.00
2022-09-14T08:01:44.233Z,4168.00
2022-09-14T08:02:44.258Z,4316.00
2022-09-14T08:03:44.133Z,4420.00
2022-09-14T08:04:44.077Z,4504.00
2022-09-14T08:05:51.150Z,4572.00
2022-09-14T08:06:44.005Z,4608.00
2022-09-14T08:07:44.021Z,4556.00
2022-09-14T08:08:43.943Z,4548.00
2022-09-14T08:09:43.966Z,4576.00
2022-09-14T08:10:50.963Z,4584.00
2022-09-14T08:11:43.950Z,4564.00
2022-09-14T08:12:43.960Z,4648.00
2022-09-14T08:13:44.029Z,4640.00
2022-09-14T08:14:44.292Z,4612.00
2022-09-14T08:15:43.855Z,4524.00
2022-09-14T08:16:50.389Z,4424.00
2022-09-14T08:17:44.225Z,4204.00
2022-09-14T08:18:43.893Z,4136.00
2022-09-14T08:19:43.833Z,4052.00
2022-09-14T08:20:43.923Z,3964.00
2022-09-14T08:21:50.175Z,3884.00
2022-09-14T08:22:43.774Z,3800.00
2022-09-14T08:23:43.777Z,3756.00
2022-09-14T08:24:43.813Z,3768.00
2022-09-14T08:25:43.733Z,3836.00
2022-09-14T08:26:50.216Z,3884.00
2022-09-14T08:27:43.767Z,3932.00
2022-09-14T08:28:44.086Z,4012.00
2022-09-14T08:29:43.912Z,4096.00
2022-09-14T08:30:44.222Z,4200.00
2022-09-14T08:31:43.844Z,4296.00
2022-09-14T08:32:51.033Z,4432.00
2022-09-14T08:33:44.068Z,4652.00
2022-09-14T08:34:43.762Z,4896.00
2022-09-14T08:35:57.374Z,5128.00
2022-09-14T08:36:45.192Z,5424.00
2022-09-14T08:37:50.057Z,5744.00
2022-09-14T08:38:43.662Z,6076.00
2022-09-14T08:39:46.225Z,6188.00
2022-09-14T08:40:43.617Z,6260.00
2022-09-14T08:41:43.615Z,6344.00
2022-09-14T08:42:43.538Z,6452.00
2022-09-14T08:43:49.964Z,6660.00
2022-09-14T08:44:43.559Z,6884.00
2022-09-14T08:45:43.812Z,6972.00
2022-09-14T08:46:43.911Z,6928.00
2022-09-14T08:47:43.467Z,6788.00
2022-09-14T08:48:43.515Z,6752.00
2022-09-14T08:49:49.924Z,6712.00
2022-09-14T08:50:43.466Z,6836.00
2022-09-14T08:51:43.470Z,6912.00
2022-09-14T08:52:43.499Z,6904.00
2022-09-14T08:53:43.459Z,6828.00
2022-09-14T08:54:43.375Z,6460.00
2022-09-14T08:55:49.829Z,6264.00
2022-09-14T08:56:44.490Z,6104.00
2022-09-14T08:57:43.439Z,5860.00
2022-09-14T08:58:48.082Z,5652.00
2022-09-14T08:59:44.971Z,5416.00
2022-09-14T09:00:43.479Z,5164.00
2022-09-14T09:01:50.288Z,5048.00
2022-09-14T09:02:43.740Z,4896.00
2022-09-14T09:03:43.377Z,4752.00
2022-09-14T09:04:43.294Z,4580.00
2022-09-14T09:05:43.222Z,4540.00
2022-09-14T09:06:43.190Z,4604.00
2022-09-14T09:07:50.982Z,4640.00
2022-09-14T09:08:43.217Z,4880.00
2022-09-14T09:09:43.353Z,5100.00
2022-09-14T09:10:43.221Z,5220.00
2022-09-14T09:11:43.586Z,5256.00
2022-09-14T09:12:49.802Z,5372.00
2022-09-14T09:13:43.153Z,5308.00
2022-09-14T09:14:43.532Z,5420.00
2022-09-14T09:15:43.584Z,5536.00
2022-09-14T09:16:43.176Z,5568.00
2022-09-14T09:17:44.037Z,5524.00
2022-09-14T09:18:49.893Z,5528.00
2022-09-14T09:19:43.324Z,5452.00
2022-09-14T09:20:43.078Z,5372.00
2022-09-14T09:21:43.067Z,5332.00
2022-09-14T09:22:43.245Z,5288.00
2022-09-14T09:23:50.013Z,5236.00
2022-09-14T09:24:46.872Z,5132.00
2022-09-14T09:25:43.159Z,4932.00
2022-09-14T09:26:43.263Z,4804.00
2022-09-14T09:27:46.466Z,4640.00
2022-09-14T09:28:49.597Z,4504.00
2022-09-14T09:29:43.331Z,4428.00
2022-09-14T09:30:43.187Z,4412.00
2022-09-14T09:31:43.050Z,4308.00
2022-09-14T09:32:42.949Z,4300.00
2022-09-14T09:33:49.232Z,4328.00
2022-09-14T09:34:44.346Z,4372.00
2022-09-14T09:35:42.868Z,4348.00
2022-09-14T09:36:42.845Z,4272.00
2022-09-14T09:37:43.978Z,4256.00
2022-09-14T09:38:43.143Z,4352.00
2022-09-14T09:39:50.223Z,4464.00
2022-09-14T09:40:43.386Z,4660.00
2022-09-14T09:41:42.799Z,5204.00
2022-09-14T09:42:43.093Z,5632.00
2022-09-14T09:43:49.658Z,5788.00
2022-09-14T09:44:44.587Z,6204.00
2022-09-14T09:45:50.577Z,6816.00
2022-09-14T09:46:43.342Z,6960.00
2022-09-14T09:47:42.945Z,6448.00
2022-09-14T09:48:43.012Z,5700.00
2022-09-14T09:49:42.728Z,5264.00
2022-09-14T09:50:42.835Z,4896.00
2022-09-14T09:51:49.369Z,4608.00
2022-09-14T09:52:42.740Z,4472.00
2022-09-14T09:53:42.672Z,4428.00
2022-09-14T09:54:42.606Z,4484.00
2022-09-14T09:55:42.674Z,4536.00
2022-09-14T09:56:42.724Z,4528.00
2022-09-14T09:57:49.219Z,4656.00
2022-09-14T09:58:42.489Z,4780.00
2022-09-14T09:59:43.283Z,4916.00
2022-09-14T10:00:42.586Z,5092.00
2022-09-14T10:01:42.599Z,5432.00
2022-09-14T10:02:48.795Z,5620.00
2022-09-14T10:03:42.580Z,5752.00
2022-09-14T10:04:42.577Z,5624.00
2022-09-14T10:05:43.385Z,5700.00
2022-09-14T10:06:42.468Z,5520.00
2022-09-14T10:07:50.372Z,5324.00
2022-09-14T10:08:42.701Z,5144.00
2022-09-14T10:09:42.456Z,4932.00
2022-09-14T10:10:42.801Z,4640.00
2022-09-14T10:11:42.478Z,4456.00
2022-09-14T10:12:49.058Z,4496.00
2022-09-14T10:13:42.439Z,4556.00
2022-09-14T10:14:42.951Z,4584.00
2022-09-14T10:15:42.521Z,4696.00
2022-09-14T10:16:43.525Z,4804.00
2022-09-14T10:17:49.347Z,4876.00
2022-09-14T10:18:45.621Z,4940.00
2022-09-14T10:19:43.797Z,5168.00
2022-09-14T10:20:42.427Z,5320.00
2022-09-14T10:21:42.236Z,5600.00
2022-09-14T10:22:43.492Z,5984.00
2022-09-14T10:23:48.951Z,6232.00
2022-09-14T10:24:43.285Z,6476.00
2022-09-14T10:25:51.187Z,6716.00
2022-09-14T10:26:42.475Z,6840.00
2022-09-14T10:27:42.974Z,6828.00
2022-09-14T10:28:42.282Z,6696.00
2022-09-14T10:29:48.508Z,6780.00
2022-09-14T10:30:42.618Z,6788.00
2022-09-14T10:31:43.410Z,6668.00
2022-09-14T10:32:42.536Z,6596.00
2022-09-14T10:33:42.558Z,6700.00
2022-09-14T10:34:48.583Z,6788.00
2022-09-14T10:35:42.124Z,6700.00
2022-09-14T10:36:44.143Z,6508.00
2022-09-14T10:37:43.025Z,6524.00
2022-09-14T10:38:42.495Z,6400.00
2022-09-14T10:39:50.469Z,6332.00
2022-09-14T10:40:43.011Z,5604.00
2022-09-14T10:41:41.999Z,5328.00
2022-09-14T10:42:42.066Z,5408.00
2022-09-14T10:43:43.316Z,5276.00
2022-09-14T10:44:48.466Z,5048.00
2022-09-14T10:45:42.072Z,5104.00
2022-09-14T10:46:42.062Z,5076.00
2022-09-14T10:47:42.198Z,5108.00
2022-09-14T10:48:44.208Z,5500.00
2022-09-14T10:49:49.387Z,6088.00
2022-09-14T10:50:42.035Z,6496.00
2022-09-14T10:51:42.254Z,6380.00
2022-09-14T10:52:42.949Z,6524.00
2022-09-14T10:53:51.005Z,6308.00
2022-09-14T10:54:48.118Z,6256.00
2022-09-14T10:55:41.805Z,6736.00
2022-09-14T10:56:41.975Z,6972.00
2022-09-14T10:57:41.792Z,7344.00
2022-09-14T10:58:41.916Z,7264.00
2022-09-14T10:59:41.861Z,7164.00
2022-09-14T11:00:48.305Z,6812.00
2022-09-14T11:01:42.030Z,6832.00
2022-09-14T11:02:41.849Z,6696.00
2022-09-14T11:03:45.703Z,7056.00
2022-09-14T11:04:41.860Z,7192.00
2022-09-14T11:05:48.308Z,7216.00
2022-09-14T11:06:41.813Z,6876.00
2022-09-14T11:07:42.916Z,6084.00
2022-09-14T11:08:41.781Z,6044.00
2022-09-14T11:09:41.831Z,6608.00
2022-09-14T11:10:48.209Z,6448.00
2022-09-14T11:11:41.847Z,6460.00
2022-09-14T11:12:41.656Z,6164.00
2022-09-14T11:13:41.715Z,5852.00
2022-09-14T11:14:41.656Z,5252.00
2022-09-14T11:15:48.119Z,4476.00
2022-09-14T11:16:42.010Z,4356.00
2022-09-14T11:17:41.638Z,4900.00
2022-09-14T11:18:41.619Z,4452.00
2022-09-14T11:19:41.539Z,4688.00
2022-09-14T11:20:42.925Z,5136.00
2022-09-14T11:21:48.096Z,5108.00
2022-09-14T11:22:41.551Z,5412.00
2022-09-14T11:23:41.568Z,5896.00
2022-09-14T11:24:41.452Z,6584.00
2022-09-14T11:25:41.442Z,6680.00
2022-09-14T11:26:48.562Z,7228.00
2022-09-14T11:27:42.705Z,7300.00
2022-09-14T11:28:41.381Z,7296.00
2022-09-14T11:29:41.736Z,7616.00
2022-09-14T11:30:41.473Z,7932.00
2022-09-14T11:32:04.166Z,7644.00
2022-09-14T11:32:42.342Z,7124.00
2022-09-14T11:33:41.650Z,6848.00
2022-09-14T11:34:41.322Z,6464.00
2022-09-14T11:35:41.606Z,5752.00
2022-09-14T11:36:41.614Z,5824.00
2022-09-14T11:37:48.738Z,6232.00
2022-09-14T11:38:41.699Z,6552.00
2022-09-14T11:39:42.347Z,7972.00
2022-09-14T11:40:42.270Z,8312.00
2022-09-14T11:41:41.503Z,8564.00
2022-09-14T11:42:41.247Z,8180.00
2022-09-14T11:43:49.004Z,8160.00
2022-09-14T11:44:41.226Z,9104.00
2022-09-14T11:45:41.246Z,9028.00
2022-09-14T11:46:42.644Z,9484.00
2022-09-14T11:47:41.144Z,9444.00
2022-09-14T11:48:50.738Z,9112.00
2022-09-14T11:49:41.478Z,8600.00
2022-09-14T11:50:41.318Z,8456.00
2022-09-14T11:51:43.951Z,8600.00
2022-09-14T11:52:41.141Z,9228.00
2022-09-14T11:53:41.092Z,9256.00
2022-09-14T11:55:26.432Z,8884.00
2022-09-14T11:56:26.576Z,8216.00
2022-09-14T11:57:26.548Z,7852.00
2022-09-14T11:58:26.485Z,7648.00
2022-09-14T11:59:27.454Z,7440.00
2022-09-14T12:00:33.368Z,7076.00
2022-09-14T12:01:38.178Z,6580.00
2022-09-14T12:02:26.500Z,6488.00
2022-09-14T12:03:26.469Z,6376.00
2022-09-14T12:04:26.660Z,6368.00
2022-09-14T12:05:26.824Z,6052.00
2022-09-14T12:06:33.298Z,5632.00
2022-09-14T12:07:26.394Z,5212.00
2022-09-14T12:08:26.538Z,5164.00
2022-09-14T12:09:26.199Z,4912.00
2022-09-14T12:10:26.401Z,4904.00
2022-09-14T12:11:32.717Z,5088.00
2022-09-14T12:12:26.213Z,4928.00
2022-09-14T12:13:26.213Z,4744.00
2022-09-14T12:14:38.589Z,4880.00
2022-09-14T12:15:26.750Z,5132.00
2022-09-14T12:16:34.623Z,5340.00
2022-09-14T12:17:39.420Z,5824.00
2022-09-14T12:18:34.552Z,6288.00
2022-09-14T12:19:26.092Z,6444.00
2022-09-14T12:20:26.232Z,6612.00
2022-09-14T12:21:26.217Z,7040.00
2022-09-14T12:22:32.841Z,7420.00
2022-09-14T12:23:26.539Z,7328.00
2022-09-14T12:24:26.163Z,7700.00
2022-09-14T12:25:26.402Z,7756.00
2022-09-14T12:26:32.594Z,7684.00
2022-09-14T12:27:32.565Z,7636.00
2022-09-14T12:28:26.284Z,7560.00
2022-09-14T12:29:30.224Z,7444.00
2022-09-14T12:30:26.110Z,7280.00
2022-09-14T12:31:26.103Z,7084.00
2022-09-14T12:32:26.011Z,6796.00
2022-09-14T12:33:34.422Z,6564.00